Airfield :
LOGIN :

Register | Disclaimer

   EN    FR    IT 

 










Legend :    VFR   Marginal VFR   IFR   Intensive IFR   Very Intensive IFR
Visi :
Ceiling :
>= 8 km
>= 3000ft
5 to 8 km
1000 to 3000 ft
1500m to 5 km
500 to 1000 ft
800 to 1500m
200 to 500 ft
< 800m
< 200 ft
Symbols :   Thunderstorms  Fog  Heavy snow  Heavy precipitations  Wind > 20 kt
SIGMETs :     Misc.  Thunderstorms  Icing  Turbulence  Mountain Waves  Volcanic Ashes







- Airport Elevation : 1363 ft


ETIC - Grafenwohr Army Air Field

CURRENT METAR :
  • 210756Z AUTO 00000KT 9999 BKN080 11/10 A3003 RMK AO2 SLP171 T01090096 $

EXPIRED METARs :
  • 210656Z AUTO 00000KT 9999 FEW028 SCT033 08/08 A3004 RMK AO2 SLP178 T00770076 $
  • 210556Z AUTO 00000KT 9999 FEW037 SCT140 BKN180 08/08 A3002 RMK AO2 SLP170 T00800079 10097 20077 58002 $

TAF TAF ETIC
Valid from the 21 at 06:00 until the 22 at 12:00 UTC


210611Z 2106/2212 VRB06KT 9999 FEW040 BKN180 QNH2998INS
TEMPO 2106/2111 20012KT BKN015
BECMG 2110/2111 25012KT 9999 SCT025 BKN040 QNH2992INS
TEMPO 2111/2118 25015G20KT BKN025
BECMG 2117/2118 25012KT 8000 -RA BKN020 OVC050 QNH2990INS
BECMG 2122/2123 25012KT 8000 -SHRA SCT015 BKN020 QNH2991INS
TEMPO 2123/2207 25015G20KT BKN015
BECMG 2207/2208 25015G20KT 9999 NSW SCT015 QNH2998INS TX16/2113Z TN07/2106Z
No reported NOTAMs for that airfield.
1 SIGMET reported for the München FIR (EDMM) :
 
Severe icing
EDMM SIGMET 1 VALID 210830/210930 EDZM
EDMM MUNCHEN FIR SEV ICE OBS APRX 30NM WID LINE BTN N5153 E01150 - N5034 E01318 FL210/240 NC FCST AT 0930Z APRX 30NM WID LINE BTN N5153 E01150 - N5034 E01318=



MET'MAP, your aeronautical weather chart ! - Copyright ORBIFLY December 2007 - Disclaimer

ORBIFLY MET'MAP TEAM :

Programming & Development : Alexandra Zaïnal
Concept & Development : Baudouin d'Aumeries
Co-Development & Prog : Marc-Olivier Méhu
Technical & hardware support : Manuel Goepfert

Contact : metmap@orbifly.com




SOURCES & CREDITS :

   NOAA